createdAt,value
2023-03-17T00:00:01.356Z,38.13
2023-03-17T00:05:46.329Z,42.05
2023-03-17T00:11:10.472Z,40.03
2023-03-17T00:16:36.050Z,30.87
2023-03-17T00:21:58.395Z,40.27
2023-03-17T00:27:22.383Z,41.20
2023-03-17T00:32:46.137Z,42.80
2023-03-17T00:38:11.232Z,42.15
2023-03-17T00:43:33.757Z,37.50
2023-03-17T00:48:57.084Z,48.13
2023-03-17T00:54:19.958Z,46.87
2023-03-17T00:59:46.392Z,42.43
2023-03-17T01:05:08.737Z,40.83
2023-03-17T01:10:35.106Z,44.27
2023-03-17T01:15:59.785Z,47.57
2023-03-17T01:21:22.924Z,46.37
2023-03-17T01:26:45.484Z,52.10
2023-03-17T01:32:08.369Z,56.63
2023-03-17T01:37:30.868Z,53.77
2023-03-17T01:42:56.994Z,45.60
2023-03-17T01:48:19.815Z,52.73
2023-03-17T01:53:42.603Z,53.63
2023-03-17T01:59:08.026Z,48.27
2023-03-17T02:04:32.135Z,58.10
2023-03-17T02:09:54.632Z,59.83
2023-03-17T02:15:17.841Z,62.17
2023-03-17T02:20:47.905Z,66.53
2023-03-17T02:26:11.960Z,62.03
2023-03-17T02:31:35.964Z,74.20
2023-03-17T02:36:59.153Z,75.97
2023-03-17T02:42:22.272Z,62.07
2023-03-17T02:47:45.294Z,65.40
2023-03-17T02:53:08.546Z,66.63
2023-03-17T02:58:30.786Z,55.73
2023-03-17T03:03:53.419Z,63.37
2023-03-17T03:09:18.260Z,62.83
2023-03-17T03:14:41.518Z,60.60
2023-03-17T03:20:03.901Z,50.43
2023-03-17T03:25:27.320Z,55.60
2023-03-17T03:30:50.110Z,54.27
2023-03-17T03:36:13.900Z,54.80
2023-03-17T03:41:36.301Z,46.50
2023-03-17T03:46:58.606Z,52.20
2023-03-17T03:52:21.503Z,53.63
2023-03-17T03:57:43.744Z,58.70
2023-03-17T04:03:06.849Z,46.70
2023-03-17T04:08:29.078Z,51.87
2023-03-17T04:13:52.418Z,54.13
2023-03-17T04:19:15.730Z,61.93
2023-03-17T04:24:37.985Z,43.42
2023-03-17T04:30:02.033Z,48.47
2023-03-17T04:35:27.674Z,44.60
2023-03-17T04:40:50.353Z,43.60
2023-03-17T04:46:13.377Z,48.63
2023-03-17T04:51:37.087Z,48.85
2023-03-17T04:56:59.394Z,47.53
2023-03-17T05:02:21.663Z,45.55
2023-03-17T05:07:45.195Z,45.65
2023-03-17T05:13:07.519Z,44.00
2023-03-17T05:18:30.347Z,46.02
2023-03-17T05:23:54.964Z,43.73
2023-03-17T05:29:17.606Z,52.17
2023-03-17T05:34:39.885Z,46.43
2023-03-17T05:40:02.573Z,48.40
2023-03-17T05:45:25.393Z,47.27
2023-03-17T05:50:48.573Z,44.98
2023-03-17T05:56:10.843Z,48.17
2023-03-17T06:01:33.434Z,51.77
2023-03-17T06:06:55.843Z,54.05
2023-03-17T06:12:18.762Z,49.88
2023-03-17T06:17:41.177Z,49.77
2023-03-17T06:23:05.555Z,47.80
2023-03-17T06:28:27.758Z,46.70
2023-03-17T06:33:50.170Z,42.13
2023-03-17T06:39:12.544Z,41.05
2023-03-17T06:44:34.790Z,42.20
2023-03-17T06:49:57.089Z,44.67
2023-03-17T06:55:20.438Z,48.48
2023-03-17T07:00:43.476Z,40.80
2023-03-17T07:06:06.355Z,46.33
2023-03-17T07:11:29.498Z,42.17
2023-03-17T07:16:51.922Z,45.78
2023-03-17T07:22:14.880Z,42.95
2023-03-17T07:27:38.070Z,41.80
2023-03-17T07:33:02.528Z,38.23
2023-03-17T07:38:25.569Z,37.08
2023-03-17T07:43:48.307Z,40.00
2023-03-17T07:49:11.471Z,40.43
2023-03-17T07:54:34.304Z,38.70
2023-03-17T07:59:57.197Z,38.85
2023-03-17T08:05:19.952Z,37.57
2023-03-17T08:10:42.319Z,37.23
2023-03-17T08:16:05.810Z,33.60
2023-03-17T08:21:28.245Z,32.70
2023-03-17T08:26:50.699Z,35.95
2023-03-17T08:32:13.955Z,32.65
2023-03-17T08:37:36.401Z,40.95
2023-03-17T08:42:59.942Z,35.40
2023-03-17T08:48:22.381Z,36.03
2023-03-17T08:53:46.024Z,41.37
2023-03-17T08:59:11.646Z,32.55
2023-03-17T09:04:35.122Z,24.63
2023-03-17T09:09:57.630Z,32.08
2023-03-17T09:15:21.535Z,32.67
2023-03-17T09:20:44.075Z,24.82
2023-03-17T09:26:07.028Z,21.55
2023-03-17T09:31:30.744Z,20.52
2023-03-17T09:36:53.873Z,22.17
2023-03-17T09:42:33.685Z,24.65
2023-03-17T09:48:24.453Z,17.60
2023-03-17T09:54:06.096Z,26.60
2023-03-17T09:59:47.329Z,20.75
2023-03-17T10:05:20.124Z,21.45
2023-03-17T10:11:13.779Z,26.07
2023-03-17T10:17:02.213Z,18.67
2023-03-17T10:22:30.289Z,17.07
2023-03-17T10:28:00.814Z,23.77
2023-03-17T10:33:24.708Z,19.50
2023-03-17T10:38:48.340Z,25.35
2023-03-17T10:44:12.929Z,17.67
2023-03-17T10:49:38.095Z,19.10
2023-03-17T10:55:05.847Z,17.20
2023-03-17T11:00:37.540Z,21.12
2023-03-17T11:06:14.001Z,18.67
2023-03-17T11:11:45.209Z,16.02
2023-03-17T11:17:21.732Z,19.90
2023-03-17T11:22:52.128Z,17.30
2023-03-17T11:28:28.634Z,21.77
2023-03-17T11:34:09.122Z,19.70
2023-03-17T11:40:20.786Z,20.95
2023-03-17T11:51:45.754Z,17.50
2023-03-17T11:57:23.378Z,16.15
2023-03-17T12:02:59.348Z,19.73
2023-03-17T12:08:48.381Z,18.98
2023-03-17T12:14:34.134Z,20.23
2023-03-17T12:20:15.181Z,19.73
2023-03-17T12:25:54.900Z,18.42
2023-03-17T12:31:29.505Z,16.00
2023-03-17T12:36:54.238Z,18.67
2023-03-17T12:42:39.439Z,14.85
2023-03-17T12:48:09.691Z,15.32
2023-03-17T12:53:39.088Z,18.62
2023-03-17T12:59:11.914Z,16.03
2023-03-17T13:05:01.406Z,11.97
2023-03-17T13:10:43.102Z,14.43
2023-03-17T13:16:12.420Z,14.73
2023-03-17T13:21:39.052Z,12.77
2023-03-17T13:27:15.501Z,10.08
2023-03-17T13:32:47.097Z,8.03
2023-03-17T13:38:31.304Z,9.65
2023-03-17T13:49:42.270Z,8.83
2023-03-17T13:55:33.948Z,9.47
2023-03-17T14:01:04.047Z,13.27
2023-03-17T14:06:30.048Z,14.43
2023-03-17T14:11:56.543Z,12.27
2023-03-17T14:17:32.261Z,12.43
2023-03-17T14:23:01.954Z,10.67
2023-03-17T14:28:29.430Z,10.63
2023-03-17T14:33:53.750Z,9.77
2023-03-17T14:39:17.805Z,12.87
2023-03-17T14:44:50.090Z,14.73
2023-03-17T14:50:22.259Z,10.53
2023-03-17T14:55:53.821Z,14.90
2023-03-17T15:01:27.569Z,12.93
2023-03-17T15:06:56.202Z,15.35
2023-03-17T15:12:31.198Z,13.80
2023-03-17T15:17:57.556Z,15.03
2023-03-17T15:23:30.380Z,14.30
2023-03-17T15:28:53.365Z,17.27
2023-03-17T15:34:18.585Z,18.55
2023-03-17T15:39:41.308Z,15.00
2023-03-17T15:45:04.563Z,12.95
2023-03-17T15:50:42.904Z,16.35
2023-03-17T15:56:06.344Z,16.87
2023-03-17T16:01:29.245Z,13.65
2023-03-17T16:07:02.789Z,14.83
2023-03-17T16:12:31.956Z,12.13
2023-03-17T16:17:55.476Z,15.20
2023-03-17T16:23:33.641Z,16.12
2023-03-17T16:28:57.675Z,16.50
2023-03-17T16:34:30.173Z,13.20
2023-03-17T16:39:52.798Z,16.55
2023-03-17T16:45:16.816Z,16.57
2023-03-17T16:50:42.517Z,15.03
2023-03-17T16:56:06.329Z,14.63
2023-03-17T17:01:34.777Z,17.93
2023-03-17T17:06:57.512Z,16.57
2023-03-17T17:12:20.883Z,16.45
2023-03-17T17:17:44.159Z,21.30
2023-03-17T17:23:08.876Z,17.20
2023-03-17T17:28:39.342Z,15.58
2023-03-17T17:34:01.971Z,16.67
2023-03-17T17:39:25.096Z,15.43
2023-03-17T17:44:48.434Z,16.37
2023-03-17T17:50:12.348Z,15.63
2023-03-17T17:55:35.970Z,18.23
2023-03-17T18:00:59.865Z,17.02
2023-03-17T18:06:22.409Z,21.62
2023-03-17T18:11:47.280Z,19.73
2023-03-17T18:17:10.387Z,18.70
2023-03-17T18:22:34.070Z,16.48
2023-03-17T18:28:02.111Z,17.98
2023-03-17T18:33:28.232Z,20.02
2023-03-17T18:38:53.561Z,16.45
2023-03-17T18:44:19.784Z,18.40
2023-03-17T18:49:42.074Z,14.90
2023-03-17T18:55:10.077Z,17.30
2023-03-17T19:00:33.283Z,15.32
2023-03-17T19:05:56.652Z,20.75
2023-03-17T19:11:21.875Z,20.35
2023-03-17T19:16:45.257Z,20.23
2023-03-17T19:22:07.902Z,19.85
2023-03-17T19:27:32.432Z,17.00
2023-03-17T19:32:55.005Z,20.43
2023-03-17T19:38:18.040Z,22.27
2023-03-17T19:43:41.706Z,20.97
2023-03-17T19:49:05.079Z,17.65
2023-03-17T19:54:28.555Z,15.10
2023-03-17T19:59:51.405Z,17.98
2023-03-17T20:05:13.872Z,18.48
2023-03-17T20:10:36.339Z,22.23
2023-03-17T20:15:58.908Z,20.40
2023-03-17T20:21:23.445Z,18.90
2023-03-17T20:26:45.973Z,21.43
2023-03-17T20:32:08.263Z,16.87
2023-03-17T20:37:31.165Z,23.10
2023-03-17T20:42:53.527Z,20.65
2023-03-17T20:48:17.007Z,21.33
2023-03-17T20:53:40.228Z,18.90
2023-03-17T20:59:06.670Z,23.73
2023-03-17T21:04:29.571Z,21.90
2023-03-17T21:09:53.919Z,21.57
2023-03-17T21:15:17.260Z,18.98
2023-03-17T21:20:39.959Z,22.70
2023-03-17T21:26:04.228Z,20.03
2023-03-17T21:31:27.733Z,21.50
2023-03-17T21:36:50.013Z,19.60
2023-03-17T21:42:12.908Z,21.97
2023-03-17T21:47:36.668Z,22.57
2023-03-17T21:53:00.211Z,22.62
2023-03-17T21:58:24.046Z,21.87
2023-03-17T22:03:47.143Z,23.63
2023-03-17T22:09:11.245Z,23.98
2023-03-17T22:14:35.345Z,26.27
2023-03-17T22:19:58.163Z,27.87
2023-03-17T22:25:23.353Z,26.42
2023-03-17T22:30:46.924Z,29.27
2023-03-17T22:36:09.363Z,26.23
2023-03-17T22:41:35.480Z,27.80
2023-03-17T22:46:59.073Z,24.57
2023-03-17T22:52:21.409Z,23.90
2023-03-17T22:57:43.695Z,28.90
2023-03-17T23:03:06.916Z,23.87
2023-03-17T23:08:30.083Z,25.70
2023-03-17T23:13:53.856Z,23.42
2023-03-17T23:19:16.963Z,32.98
2023-03-17T23:24:39.339Z,25.55
2023-03-17T23:30:02.000Z,29.80
2023-03-17T23:35:25.482Z,25.05
2023-03-17T23:40:48.978Z,25.08
2023-03-17T23:46:14.206Z,26.62
2023-03-17T23:51:37.126Z,28.70
2023-03-17T23:57:00.360Z,23.98
